sensor_id;sensor_type;location;lat;lon;timestamp;pressure;altitude;pressure_sealevel;temperature
19568;BMP280;9930;49.240;8.548;2023-06-24T00:01:47;101311.44;;;24.53
19568;BMP280;9930;49.240;8.548;2023-06-24T00:04:17;101303.63;;;24.50
19568;BMP280;9930;49.240;8.548;2023-06-24T00:06:44;101303.66;;;24.44
19568;BMP280;9930;49.240;8.548;2023-06-24T00:09:10;101291.53;;;24.37
19568;BMP280;9930;49.240;8.548;2023-06-24T00:11:36;101299.34;;;24.37
19568;BMP280;9930;49.240;8.548;2023-06-24T00:14:04;101286.38;;;24.28
19568;BMP280;9930;49.240;8.548;2023-06-24T00:16:30;101292.44;;;24.30
19568;BMP280;9930;49.240;8.548;2023-06-24T00:18:58;101294.19;;;24.26
19568;BMP280;9930;49.240;8.548;2023-06-24T00:21:27;101304.59;;;24.29
19568;BMP280;9930;49.240;8.548;2023-06-24T00:24:01;101292.44;;;24.22
19568;BMP280;9930;49.240;8.548;2023-06-24T00:26:30;101302.00;;;24.23
19568;BMP280;9930;49.240;8.548;2023-06-24T00:28:58;101288.13;;;24.16
19568;BMP280;9930;49.240;8.548;2023-06-24T00:31:24;101302.88;;;24.19
19568;BMP280;9930;49.240;8.548;2023-06-24T00:33:52;101299.41;;;24.17
19568;BMP280;9930;49.240;8.548;2023-06-24T00:36:18;101304.63;;;24.14
19568;BMP280;9930;49.240;8.548;2023-06-24T00:38:46;101295.97;;;24.12
19568;BMP280;9930;49.240;8.548;2023-06-24T00:41:18;101301.19;;;24.09
19568;BMP280;9930;49.240;8.548;2023-06-24T00:43:47;101302.06;;;24.09
19568;BMP280;9930;49.240;8.548;2023-06-24T00:46:15;101299.47;;;24.03
19568;BMP280;9930;49.240;8.548;2023-06-24T00:48:46;101306.41;;;24.04
19568;BMP280;9930;49.240;8.548;2023-06-24T00:51:13;101294.28;;;23.96
19568;BMP280;9930;49.240;8.548;2023-06-24T00:53:41;101292.53;;;23.98
19568;BMP280;9930;49.240;8.548;2023-06-24T00:56:07;101288.22;;;23.92
19568;BMP280;9930;49.240;8.548;2023-06-24T00:58:37;101302.09;;;23.96
19568;BMP280;9930;49.240;8.548;2023-06-24T01:01:05;101294.31;;;23.88
19568;BMP280;9930;49.240;8.548;2023-06-24T01:03:36;101300.38;;;23.92
19568;BMP280;9930;49.240;8.548;2023-06-24T01:06:07;101309.06;;;23.89
19568;BMP280;9930;49.240;8.548;2023-06-24T01:08:34;101302.13;;;23.82
19568;BMP280;9930;49.240;8.548;2023-06-24T01:11:03;101317.78;;;23.83
19568;BMP280;9930;49.240;8.548;2023-06-24T01:13:31;101318.66;;;23.81
19568;BMP280;9930;49.240;8.548;2023-06-24T01:16:10;101322.13;;;23.77
19568;BMP280;9930;49.240;8.548;2023-06-24T01:18:46;101317.78;;;23.73
19568;BMP280;9930;49.240;8.548;2023-06-24T01:24:48;101312.63;;;23.57
19568;BMP280;9930;49.240;8.548;2023-06-24T01:33:03;101320.41;;;23.50
19568;BMP280;9930;49.240;8.548;2023-06-24T01:35:34;101318.66;;;23.47
19568;BMP280;9930;49.240;8.548;2023-06-24T01:38:21;101311.72;;;23.39
19568;BMP280;9930;49.240;8.548;2023-06-24T01:40:53;101314.34;;;23.40
19568;BMP280;9930;49.240;8.548;2023-06-24T01:43:24;101316.94;;;23.39
19568;BMP280;9930;49.240;8.548;2023-06-24T01:45:54;101321.28;;;23.37
19568;BMP280;9930;49.240;8.548;2023-06-24T01:48:44;101316.06;;;23.32
19568;BMP280;9930;49.240;8.548;2023-06-24T01:51:18;101301.31;;;23.23
19568;BMP280;9930;49.240;8.548;2023-06-24T01:53:52;101316.06;;;23.26
19568;BMP280;9930;49.240;8.548;2023-06-24T01:56:25;101309.13;;;23.22
19568;BMP280;9930;49.240;8.548;2023-06-24T01:59:00;101309.13;;;23.22
19568;BMP280;9930;49.240;8.548;2023-06-24T02:01:28;101309.13;;;23.19
19568;BMP280;9930;49.240;8.548;2023-06-24T02:03:57;101302.19;;;23.10
19568;BMP280;9930;49.240;8.548;2023-06-24T02:06:26;101296.97;;;23.06
19568;BMP280;9930;49.240;8.548;2023-06-24T02:08:55;101316.94;;;23.10
19568;BMP280;9930;49.240;8.548;2023-06-24T02:11:25;101316.94;;;23.07
19568;BMP280;9930;49.240;8.548;2023-06-24T02:13:54;101322.13;;;23.04
19568;BMP280;9930;49.240;8.548;2023-06-24T02:16:21;101321.28;;;23.02
19568;BMP280;9930;49.240;8.548;2023-06-24T02:18:50;101302.19;;;22.92
19568;BMP280;9930;49.240;8.548;2023-06-24T02:21:18;101303.91;;;22.90
19568;BMP280;9930;49.240;8.548;2023-06-24T02:23:47;101311.72;;;22.91
19568;BMP280;9930;49.240;8.548;2023-06-24T02:26:15;101301.31;;;22.85
19568;BMP280;9930;49.240;8.548;2023-06-24T02:28:46;101309.97;;;22.84
19568;BMP280;9930;49.240;8.548;2023-06-24T02:31:14;101316.91;;;22.90
19568;BMP280;9930;49.240;8.548;2023-06-24T02:33:40;101321.25;;;22.88
19568;BMP280;9930;49.240;8.548;2023-06-24T02:36:06;101318.63;;;22.82
19568;BMP280;9930;49.240;8.548;2023-06-24T02:38:32;101320.38;;;22.84
19568;BMP280;9930;49.240;8.548;2023-06-24T02:41:00;101303.84;;;22.76
19568;BMP280;9930;49.240;8.548;2023-06-24T02:43:30;101310.78;;;22.76
19568;BMP280;9930;49.240;8.548;2023-06-24T02:46:03;101316.84;;;22.73
19568;BMP280;9930;49.240;8.548;2023-06-24T02:48:38;101309.03;;;22.67
19568;BMP280;9930;49.240;8.548;2023-06-24T02:51:06;101311.63;;;22.66
19568;BMP280;9930;49.240;8.548;2023-06-24T02:53:36;101310.78;;;22.65
19568;BMP280;9930;49.240;8.548;2023-06-24T02:56:03;101302.97;;;22.62
19568;BMP280;9930;49.240;8.548;2023-06-24T02:58:30;101320.31;;;22.66
19568;BMP280;9930;49.240;8.548;2023-06-24T03:01:00;101314.22;;;22.64
19568;BMP280;9930;49.240;8.548;2023-06-24T03:03:28;101296.88;;;22.55
19568;BMP280;9930;49.240;8.548;2023-06-24T03:05:56;101319.41;;;22.59
19568;BMP280;9930;49.240;8.548;2023-06-24T03:08:24;101322.00;;;22.56
19568;BMP280;9930;49.240;8.548;2023-06-24T03:10:54;101316.81;;;22.58
19568;BMP280;9930;49.240;8.548;2023-06-24T03:13:20;101311.59;;;22.49
19568;BMP280;9930;49.240;8.548;2023-06-24T03:15:46;101321.16;;;22.56
19568;BMP280;9930;49.240;8.548;2023-06-24T03:18:16;101317.66;;;22.51
19568;BMP280;9930;49.240;8.548;2023-06-24T03:20:45;101322.00;;;22.47
19568;BMP280;9930;49.240;8.548;2023-06-24T03:23:14;101332.41;;;22.50
19568;BMP280;9930;49.240;8.548;2023-06-24T03:25:47;101330.66;;;22.48
19568;BMP280;9930;49.240;8.548;2023-06-24T03:28:20;101335.00;;;22.47
19568;BMP280;9930;49.240;8.548;2023-06-24T03:30:48;101333.25;;;22.45
19568;BMP280;9930;49.240;8.548;2023-06-24T03:33:14;101326.31;;;22.42
19568;BMP280;9930;49.240;8.548;2023-06-24T03:35:43;101338.44;;;22.48
19568;BMP280;9930;49.240;8.548;2023-06-24T03:38:09;101340.19;;;22.47
19568;BMP280;9930;49.240;8.548;2023-06-24T03:40:34;101341.94;;;22.48
19568;BMP280;9930;49.240;8.548;2023-06-24T03:43:05;101341.94;;;22.50
19568;BMP280;9930;49.240;8.548;2023-06-24T03:45:31;101335.88;;;22.51
19568;BMP280;9930;49.240;8.548;2023-06-24T03:47:56;101337.59;;;22.49
19568;BMP280;9930;49.240;8.548;2023-06-24T03:50:22;101346.28;;;22.55
19568;BMP280;9930;49.240;8.548;2023-06-24T03:52:48;101330.69;;;22.57
19568;BMP280;9930;49.240;8.548;2023-06-24T03:55:19;101325.50;;;22.61
19568;BMP280;9930;49.240;8.548;2023-06-24T03:57:46;101339.41;;;22.79
19568;BMP280;9930;49.240;8.548;2023-06-24T04:00:13;101324.69;;;22.79
19568;BMP280;9930;49.240;8.548;2023-06-24T04:02:43;101347.28;;;22.97
19568;BMP280;9930;49.240;8.548;2023-06-24T04:05:10;101353.38;;;23.13
19568;BMP280;9930;49.240;8.548;2023-06-24T04:07:41;101349.03;;;23.22
19568;BMP280;9930;49.240;8.548;2023-06-24T04:10:09;101335.16;;;23.23
19568;BMP280;9930;49.240;8.548;2023-06-24T04:12:36;101333.44;;;23.27
19568;BMP280;9930;49.240;8.548;2023-06-24T04:15:08;101343.84;;;23.33
19568;BMP280;9930;49.240;8.548;2023-06-24T04:17:34;101345.59;;;23.37
19568;BMP280;9930;49.240;8.548;2023-06-24T04:20:05;101337.78;;;23.33
19568;BMP280;9930;49.240;8.548;2023-06-24T04:22:36;101346.44;;;23.38
19568;BMP280;9930;49.240;8.548;2023-06-24T04:25:02;101352.53;;;23.37
19568;BMP280;9930;49.240;8.548;2023-06-24T04:27:30;101339.50;;;23.31
19568;BMP280;9930;49.240;8.548;2023-06-24T04:29:56;101358.59;;;23.36
19568;BMP280;9930;49.240;8.548;2023-06-24T04:32:21;101363.81;;;23.36
19568;BMP280;9930;49.240;8.548;2023-06-24T04:34:47;101362.94;;;23.37
19568;BMP280;9930;49.240;8.548;2023-06-24T04:37:13;101362.06;;;23.38
19568;BMP280;9930;49.240;8.548;2023-06-24T04:39:39;101364.69;;;23.38
19568;BMP280;9930;49.240;8.548;2023-06-24T04:42:05;101366.41;;;23.40
19568;BMP280;9930;49.240;8.548;2023-06-24T04:44:31;101372.50;;;23.44
19568;BMP280;9930;49.240;8.548;2023-06-24T04:47:01;101371.63;;;23.48
19568;BMP280;9930;49.240;8.548;2023-06-24T04:49:26;101375.97;;;23.50
19568;BMP280;9930;49.240;8.548;2023-06-24T04:51:54;101374.22;;;23.52
19568;BMP280;9930;49.240;8.548;2023-06-24T04:54:22;101383.81;;;23.56
19568;BMP280;9930;49.240;8.548;2023-06-24T04:56:53;101361.22;;;23.55
19568;BMP280;9930;49.240;8.548;2023-06-24T04:59:23;101375.09;;;23.73
19568;BMP280;9930;49.240;8.548;2023-06-24T05:01:51;101384.63;;;23.95
19568;BMP280;9930;49.240;8.548;2023-06-24T05:04:17;101388.91;;;24.22
19568;BMP280;9930;49.240;8.548;2023-06-24T05:06:48;101383.63;;;24.52
19568;BMP280;9930;49.240;8.548;2023-06-24T05:09:18;101381.72;;;24.82
19568;BMP280;9930;49.240;8.548;2023-06-24T05:11:47;101369.41;;;25.08
19568;BMP280;9930;49.240;8.548;2023-06-24T05:14:14;101372.63;;;25.42
19568;BMP280;9930;49.240;8.548;2023-06-24T05:16:43;101374.94;;;25.80
19568;BMP280;9930;49.240;8.548;2023-06-24T05:19:14;101371.81;;;26.25
19568;BMP280;9930;49.240;8.548;2023-06-24T05:21:41;101382.72;;;26.62
19568;BMP280;9930;49.240;8.548;2023-06-24T05:24:10;101391.75;;;27.04
19568;BMP280;9930;49.240;8.548;2023-06-24T05:26:39;101386.84;;;27.38
19568;BMP280;9930;49.240;8.548;2023-06-24T05:29:04;101377.63;;;27.68
19568;BMP280;9930;49.240;8.548;2023-06-24T05:31:32;101386.53;;;28.05
19568;BMP280;9930;49.240;8.548;2023-06-24T05:33:58;101381.56;;;28.38
19568;BMP280;9930;49.240;8.548;2023-06-24T05:36:28;101390.41;;;28.74
19568;BMP280;9930;49.240;8.548;2023-06-24T05:38:56;101379.38;;;28.98
19568;BMP280;9930;49.240;8.548;2023-06-24T05:41:22;101397.00;;;29.30
19568;BMP280;9930;49.240;8.548;2023-06-24T05:44:06;101379.00;;;29.51
19568;BMP280;9930;49.240;8.548;2023-06-24T05:46:35;101395.72;;;29.82
19568;BMP280;9930;49.240;8.548;2023-06-24T05:49:02;101385.59;;;30.01
19568;BMP280;9930;49.240;8.548;2023-06-24T05:51:27;101377.88;;;30.26
19568;BMP280;9930;49.240;8.548;2023-06-24T05:53:53;101386.13;;;30.43
19568;BMP280;9930;49.240;8.548;2023-06-24T05:56:21;101372.13;;;30.43
19568;BMP280;9930;49.240;8.548;2023-06-24T05:58:50;101378.00;;;30.51
19568;BMP280;9930;49.240;8.548;2023-06-24T06:01:16;101375.38;;;30.51
19568;BMP280;9930;49.240;8.548;2023-06-24T06:03:44;101384.97;;;30.53
19568;BMP280;9930;49.240;8.548;2023-06-24T06:06:10;101372.16;;;30.41
19568;BMP280;9930;49.240;8.548;2023-06-24T06:08:36;101377.69;;;30.32
19568;BMP280;9930;49.240;8.548;2023-06-24T06:11:01;101389.38;;;30.22
19568;BMP280;9930;49.240;8.548;2023-06-24T06:13:29;101396.69;;;30.12
19568;BMP280;9930;49.240;8.548;2023-06-24T06:15:55;101384.69;;;30.02
19568;BMP280;9930;49.240;8.548;2023-06-24T06:18:21;101394.25;;;30.05
19568;BMP280;9930;49.240;8.548;2023-06-24T06:20:47;101396.88;;;30.05
19568;BMP280;9930;49.240;8.548;2023-06-24T06:23:15;101389.00;;;30.05
19568;BMP280;9930;49.240;8.548;2023-06-24T06:25:40;101384.59;;;30.05
19568;BMP280;9930;49.240;8.548;2023-06-24T06:28:11;101373.53;;;29.92
19568;BMP280;9930;49.240;8.548;2023-06-24T06:30:41;101389.25;;;29.94
19568;BMP280;9930;49.240;8.548;2023-06-24T06:33:07;101373.59;;;29.89
19568;BMP280;9930;49.240;8.548;2023-06-24T06:35:32;101376.31;;;29.86
19568;BMP280;9930;49.240;8.548;2023-06-24T06:38:00;101385.06;;;29.87
19568;BMP280;9930;49.240;8.548;2023-06-24T06:40:28;101375.50;;;29.84
19568;BMP280;9930;49.240;8.548;2023-06-24T06:42:54;101376.53;;;29.79
19568;BMP280;9930;49.240;8.548;2023-06-24T06:45:24;101387.66;;;29.88
19568;BMP280;9930;49.240;8.548;2023-06-24T06:47:52;101387.38;;;29.99
19568;BMP280;9930;49.240;8.548;2023-06-24T06:50:18;101383.22;;;30.23
19568;BMP280;9930;49.240;8.548;2023-06-24T06:52:48;101385.81;;;30.54
19568;BMP280;9930;49.240;8.548;2023-06-24T06:55:17;101382.28;;;30.84
19568;BMP280;9930;49.240;8.548;2023-06-24T06:57:45;101385.91;;;31.08
19568;BMP280;9930;49.240;8.548;2023-06-24T07:00:15;101372.94;;;31.29
19568;BMP280;9930;49.240;8.548;2023-06-24T07:02:46;101371.31;;;31.51
19568;BMP280;9930;49.240;8.548;2023-06-24T07:05:15;101380.25;;;31.73
19568;BMP280;9930;49.240;8.548;2023-06-24T07:07:43;101376.47;;;31.80
19568;BMP280;9930;49.240;8.548;2023-06-24T07:10:18;101378.09;;;31.84
19568;BMP280;9930;49.240;8.548;2023-06-24T07:12:45;101376.38;;;31.83
19568;BMP280;9930;49.240;8.548;2023-06-24T07:15:11;101378.94;;;31.85
19568;BMP280;9930;49.240;8.548;2023-06-24T07:17:42;101372.88;;;31.83
19568;BMP280;9930;49.240;8.548;2023-06-24T07:20:09;101366.03;;;31.77
19568;BMP280;9930;49.240;8.548;2023-06-24T07:22:37;101362.69;;;31.72
19568;BMP280;9930;49.240;8.548;2023-06-24T07:25:03;101368.03;;;31.71
19568;BMP280;9930;49.240;8.548;2023-06-24T07:27:32;101369.00;;;31.67
19568;BMP280;9930;49.240;8.548;2023-06-24T07:30:00;101376.38;;;31.57
19568;BMP280;9930;49.240;8.548;2023-06-24T07:32:25;101369.69;;;31.47
19568;BMP280;9930;49.240;8.548;2023-06-24T07:34:51;101363.94;;;31.36
19568;BMP280;9930;49.240;8.548;2023-06-24T07:37:21;101362.09;;;31.38
19568;BMP280;9930;49.240;8.548;2023-06-24T07:39:47;101373.03;;;31.52
19568;BMP280;9930;49.240;8.548;2023-06-24T07:42:14;101370.25;;;31.56
19568;BMP280;9930;49.240;8.548;2023-06-24T07:44:48;101374.56;;;31.59
19568;BMP280;9930;49.240;8.548;2023-06-24T07:47:17;101362.88;;;31.66
19568;BMP280;9930;49.240;8.548;2023-06-24T07:49:49;101353.84;;;31.73
19568;BMP280;9930;49.240;8.548;2023-06-24T07:52:14;101364.72;;;31.89
19568;BMP280;9930;49.240;8.548;2023-06-24T07:54:43;101363.06;;;31.86
19568;BMP280;9930;49.240;8.548;2023-06-24T07:57:16;101357.66;;;31.89
19568;BMP280;9930;49.240;8.548;2023-06-24T07:59:46;101366.22;;;31.96
19568;BMP280;9930;49.240;8.548;2023-06-24T08:02:15;101359.97;;;31.99
19568;BMP280;9930;49.240;8.548;2023-06-24T08:04:41;101367.50;;;32.09
19568;BMP280;9930;49.240;8.548;2023-06-24T08:07:06;101356.03;;;32.10
19568;BMP280;9930;49.240;8.548;2023-06-24T08:09:34;101363.59;;;32.19
19568;BMP280;9930;49.240;8.548;2023-06-24T08:12:00;101359.97;;;32.24
19568;BMP280;9930;49.240;8.548;2023-06-24T08:14:28;101360.72;;;32.27
19568;BMP280;9930;49.240;8.548;2023-06-24T08:16:54;101361.56;;;32.28
19568;BMP280;9930;49.240;8.548;2023-06-24T08:19:19;101352.94;;;32.22
19568;BMP280;9930;49.240;8.548;2023-06-24T08:21:47;101351.19;;;32.23
19568;BMP280;9930;49.240;8.548;2023-06-24T08:24:19;101355.44;;;32.27
19568;BMP280;9930;49.240;8.548;2023-06-24T08:26:46;101341.44;;;32.25
19568;BMP280;9930;49.240;8.548;2023-06-24T08:29:15;101349.00;;;32.34
19568;BMP280;9930;49.240;8.548;2023-06-24T08:31:43;101332.28;;;32.34
19568;BMP280;9930;49.240;8.548;2023-06-24T08:34:09;101336.59;;;32.36
19568;BMP280;9930;49.240;8.548;2023-06-24T08:36:34;101340.16;;;32.35
19568;BMP280;9930;49.240;8.548;2023-06-24T08:39:01;101340.09;;;32.37
19568;BMP280;9930;49.240;8.548;2023-06-24T08:41:27;101342.00;;;32.33
19568;BMP280;9930;49.240;8.548;2023-06-24T08:43:55;101330.94;;;32.24
19568;BMP280;9930;49.240;8.548;2023-06-24T08:46:24;101339.91;;;32.18
19568;BMP280;9930;49.240;8.548;2023-06-24T08:49:00;101336.13;;;32.02
19568;BMP280;9930;49.240;8.548;2023-06-24T08:51:41;101336.66;;;31.86
19568;BMP280;9930;49.240;8.548;2023-06-24T08:54:10;101332.88;;;31.70
19568;BMP280;9930;49.240;8.548;2023-06-24T08:56:40;101331.16;;;31.68
19568;BMP280;9930;49.240;8.548;2023-06-24T08:59:06;101337.28;;;31.70
19568;BMP280;9930;49.240;8.548;2023-06-24T09:01:32;101333.22;;;31.60
19568;BMP280;9930;49.240;8.548;2023-06-24T09:03:58;101335.31;;;31.50
19568;BMP280;9930;49.240;8.548;2023-06-24T09:06:26;101331.16;;;31.43
19568;BMP280;9930;49.240;8.548;2023-06-24T09:08:55;101342.72;;;31.39
19568;BMP280;9930;49.240;8.548;2023-06-24T09:11:28;101324.69;;;31.27
19568;BMP280;9930;49.240;8.548;2023-06-24T09:13:58;101319.56;;;31.22
19568;BMP280;9930;49.240;8.548;2023-06-24T09:16:28;101322.16;;;31.23
19568;BMP280;9930;49.240;8.548;2023-06-24T09:18:54;101326.56;;;31.23
19568;BMP280;9930;49.240;8.548;2023-06-24T09:21:28;101318.09;;;31.15
19568;BMP280;9930;49.240;8.548;2023-06-24T09:23:58;101318.03;;;31.16
19568;BMP280;9930;49.240;8.548;2023-06-24T09:26:29;101318.94;;;31.15
19568;BMP280;9930;49.240;8.548;2023-06-24T09:28:57;101310.34;;;31.09
19568;BMP280;9930;49.240;8.548;2023-06-24T09:31:26;101302.53;;;31.06
19568;BMP280;9930;49.240;8.548;2023-06-24T09:33:51;101303.41;;;31.06
19568;BMP280;9930;49.240;8.548;2023-06-24T09:36:20;101295.50;;;31.06
19568;BMP280;9930;49.240;8.548;2023-06-24T09:38:48;101292.59;;;31.15
19568;BMP280;9930;49.240;8.548;2023-06-24T09:41:17;101294.81;;;31.26
19568;BMP280;9930;49.240;8.548;2023-06-24T09:43:44;101298.91;;;31.35
19568;BMP280;9930;49.240;8.548;2023-06-24T09:46:11;101297.25;;;31.32
19568;BMP280;9930;49.240;8.548;2023-06-24T09:48:36;101295.63;;;31.28
19568;BMP280;9930;49.240;8.548;2023-06-24T09:51:04;101286.06;;;31.25
19568;BMP280;9930;49.240;8.548;2023-06-24T09:53:35;101284.28;;;31.26
19568;BMP280;9930;49.240;8.548;2023-06-24T09:56:05;101286.00;;;31.27
19568;BMP280;9930;49.240;8.548;2023-06-24T09:58:35;101280.63;;;31.30
19568;BMP280;9930;49.240;8.548;2023-06-24T10:01:10;101284.72;;;31.39
19568;BMP280;9930;49.240;8.548;2023-06-24T10:03:39;101280.94;;;31.46
19568;BMP280;9930;49.240;8.548;2023-06-24T10:06:06;101277.22;;;31.51
19568;BMP280;9930;49.240;8.548;2023-06-24T10:08:33;101265.72;;;31.54
19568;BMP280;9930;49.240;8.548;2023-06-24T10:10:59;101278.47;;;31.66
19568;BMP280;9930;49.240;8.548;2023-06-24T10:13:26;101272.03;;;31.75
19568;BMP280;9930;49.240;8.548;2023-06-24T10:15:56;101268.06;;;31.86
19568;BMP280;9930;49.240;8.548;2023-06-24T10:21:00;101261.22;;;32.04
19568;BMP280;9930;49.240;8.548;2023-06-24T10:26:30;101249.75;;;32.05
19568;BMP280;9930;49.240;8.548;2023-06-24T10:37:23;101244.72;;;31.99
19568;BMP280;9930;49.240;8.548;2023-06-24T10:39:54;101233.47;;;31.94
19568;BMP280;9930;49.240;8.548;2023-06-24T10:42:42;101236.00;;;31.97
19568;BMP280;9930;49.240;8.548;2023-06-24T10:45:16;101220.34;;;31.93
19568;BMP280;9930;49.240;8.548;2023-06-24T10:47:49;101220.56;;;31.86
19568;BMP280;9930;49.240;8.548;2023-06-24T10:50:21;101225.63;;;31.93
19568;BMP280;9930;49.240;8.548;2023-06-24T10:52:52;101221.03;;;31.98
19568;BMP280;9930;49.240;8.548;2023-06-24T10:55:24;101207.69;;;32.01
19568;BMP280;9930;49.240;8.548;2023-06-24T10:57:53;101196.47;;;31.96
19568;BMP280;9930;49.240;8.548;2023-06-24T11:00:21;101200.75;;;31.98
19568;BMP280;9930;49.240;8.548;2023-06-24T11:02:47;101203.28;;;32.01
19568;BMP280;9930;49.240;8.548;2023-06-24T11:05:13;101202.94;;;32.10
19568;BMP280;9930;49.240;8.548;2023-06-24T11:07:40;101187.88;;;32.12
19568;BMP280;9930;49.240;8.548;2023-06-24T11:12:37;101183.75;;;32.29
19568;BMP280;9930;49.240;8.548;2023-06-24T11:17:35;101175.56;;;32.35
19568;BMP280;9930;49.240;8.548;2023-06-24T11:20:06;101160.47;;;32.38
19568;BMP280;9930;49.240;8.548;2023-06-24T11:22:32;101179.13;;;32.56
19568;BMP280;9930;49.240;8.548;2023-06-24T11:25:00;101163.19;;;32.57
19568;BMP280;9930;49.240;8.548;2023-06-24T11:27:30;101180.38;;;32.67
19568;BMP280;9930;49.240;8.548;2023-06-24T11:29:59;101161.94;;;32.66
19568;BMP280;9930;49.240;8.548;2023-06-24T11:32:41;101182.69;;;32.75
19568;BMP280;9930;49.240;8.548;2023-06-24T11:35:11;101165.38;;;32.68
19568;BMP280;9930;49.240;8.548;2023-06-24T11:37:42;101166.13;;;32.71
19568;BMP280;9930;49.240;8.548;2023-06-24T11:40:12;101158.31;;;32.68
19568;BMP280;9930;49.240;8.548;2023-06-24T11:42:42;101159.19;;;32.69
19568;BMP280;9930;49.240;8.548;2023-06-24T11:45:14;101152.25;;;32.66
19568;BMP280;9930;49.240;8.548;2023-06-24T11:47:43;101151.25;;;32.69
19568;BMP280;9930;49.240;8.548;2023-06-24T11:50:09;101158.13;;;32.73
19568;BMP280;9930;49.240;8.548;2023-06-24T11:52:48;101149.22;;;32.75
19568;BMP280;9930;49.240;8.548;2023-06-24T11:55:19;101150.75;;;32.81
19568;BMP280;9930;49.240;8.548;2023-06-24T11:57:57;101141.91;;;32.82
19568;BMP280;9930;49.240;8.548;2023-06-24T12:00:30;101133.91;;;32.83
19568;BMP280;9930;49.240;8.548;2023-06-24T12:03:03;101140.72;;;32.89
19568;BMP280;9930;49.240;8.548;2023-06-24T12:05:35;101125.13;;;32.83
19568;BMP280;9930;49.240;8.548;2023-06-24T12:08:05;101139.44;;;32.98
19568;BMP280;9930;49.240;8.548;2023-06-24T12:10:33;101135.69;;;33.03
19568;BMP280;9930;49.240;8.548;2023-06-24T12:13:01;101137.13;;;33.10
19568;BMP280;9930;49.240;8.548;2023-06-24T12:15:27;101127.13;;;33.17
19568;BMP280;9930;49.240;8.548;2023-06-24T12:17:54;101114.63;;;33.21
19568;BMP280;9930;49.240;8.548;2023-06-24T12:20:21;101122.97;;;33.32
19568;BMP280;9930;49.240;8.548;2023-06-24T12:22:50;101114.81;;;33.36
19568;BMP280;9930;49.240;8.548;2023-06-24T12:25:18;101118.03;;;33.43
19568;BMP280;9930;49.240;8.548;2023-06-24T12:27:49;101124.25;;;33.42
19568;BMP280;9930;49.240;8.548;2023-06-24T12:30:17;101106.16;;;33.33
19568;BMP280;9930;49.240;8.548;2023-06-24T12:32:45;101107.09;;;33.32
19568;BMP280;9930;49.240;8.548;2023-06-24T12:35:14;101115.59;;;33.38
19568;BMP280;9930;49.240;8.548;2023-06-24T12:37:44;101103.16;;;33.40
19568;BMP280;9930;49.240;8.548;2023-06-24T12:40:11;101102.38;;;33.38
19568;BMP280;9930;49.240;8.548;2023-06-24T12:42:39;101091.03;;;33.36
19568;BMP280;9930;49.240;8.548;2023-06-24T12:45:08;101083.66;;;33.43
19568;BMP280;9930;49.240;8.548;2023-06-24T12:47:36;101075.06;;;33.38
19568;BMP280;9930;49.240;8.548;2023-06-24T12:50:02;101076.56;;;33.43
19568;BMP280;9930;49.240;8.548;2023-06-24T12:52:34;101087.66;;;33.52
19568;BMP280;9930;49.240;8.548;2023-06-24T12:55:00;101088.50;;;33.52
19568;BMP280;9930;49.240;8.548;2023-06-24T12:57:25;101093.72;;;33.54
19568;BMP280;9930;49.240;8.548;2023-06-24T12:59:53;101066.06;;;33.42
19568;BMP280;9930;49.240;8.548;2023-06-24T13:02:19;101089.16;;;33.57
19568;BMP280;9930;49.240;8.548;2023-06-24T13:04:48;101074.91;;;33.60
19568;BMP280;9930;49.240;8.548;2023-06-24T13:07:16;101071.75;;;33.70
19568;BMP280;9930;49.240;8.548;2023-06-24T13:09:45;101081.25;;;33.74
19568;BMP280;9930;49.240;8.548;2023-06-24T13:12:14;101077.69;;;33.75
19568;BMP280;9930;49.240;8.548;2023-06-24T13:14:39;101066.88;;;33.80
19568;BMP280;9930;49.240;8.548;2023-06-24T13:17:05;101062.31;;;33.84
19568;BMP280;9930;49.240;8.548;2023-06-24T13:19:34;101055.16;;;33.86
19568;BMP280;9930;49.240;8.548;2023-06-24T13:22:00;101055.66;;;33.94
19568;BMP280;9930;49.240;8.548;2023-06-24T13:24:25;101055.19;;;34.03
19568;BMP280;9930;49.240;8.548;2023-06-24T13:26:51;101074.03;;;34.14
19568;BMP280;9930;49.240;8.548;2023-06-24T13:29:19;101070.16;;;34.21
19568;BMP280;9930;49.240;8.548;2023-06-24T13:31:46;101059.31;;;34.26
19568;BMP280;9930;49.240;8.548;2023-06-24T13:34:12;101059.09;;;34.30
19568;BMP280;9930;49.240;8.548;2023-06-24T13:36:41;101043.34;;;34.27
19568;BMP280;9930;49.240;8.548;2023-06-24T13:39:10;101047.09;;;34.23
19568;BMP280;9930;49.240;8.548;2023-06-24T13:41:44;101056.91;;;34.21
19568;BMP280;9930;49.240;8.548;2023-06-24T13:44:10;101057.16;;;34.17
19568;BMP280;9930;49.240;8.548;2023-06-24T13:46:36;101044.28;;;34.09
19568;BMP280;9930;49.240;8.548;2023-06-24T13:49:02;101046.38;;;34.02
19568;BMP280;9930;49.240;8.548;2023-06-24T13:51:28;101039.59;;;33.97
19568;BMP280;9930;49.240;8.548;2023-06-24T13:53:55;101025.13;;;33.87
19568;BMP280;9930;49.240;8.548;2023-06-24T13:56:25;101039.06;;;33.90
19568;BMP280;9930;49.240;8.548;2023-06-24T13:58:54;101035.56;;;33.90
19568;BMP280;9930;49.240;8.548;2023-06-24T14:01:20;101025.13;;;33.87
19568;BMP280;9930;49.240;8.548;2023-06-24T14:03:50;101034.47;;;33.94
19568;BMP280;9930;49.240;8.548;2023-06-24T14:06:20;101032.91;;;33.90
19568;BMP280;9930;49.240;8.548;2023-06-24T14:08:46;101035.56;;;33.90
19568;BMP280;9930;49.240;8.548;2023-06-24T14:11:12;101020.91;;;33.83
19568;BMP280;9930;49.240;8.548;2023-06-24T14:13:43;101020.06;;;33.82
19568;BMP280;9930;49.240;8.548;2023-06-24T14:16:14;101011.47;;;33.77
19568;BMP280;9930;49.240;8.548;2023-06-24T14:18:40;101016.56;;;33.82
19568;BMP280;9930;49.240;8.548;2023-06-24T14:21:36;101008.09;;;33.73
19568;BMP280;9930;49.240;8.548;2023-06-24T14:24:07;101015.81;;;33.78
19568;BMP280;9930;49.240;8.548;2023-06-24T14:26:35;101015.88;;;33.76
19568;BMP280;9930;49.240;8.548;2023-06-24T14:29:01;101003.91;;;33.69
19568;BMP280;9930;49.240;8.548;2023-06-24T14:31:32;101006.06;;;33.61
19568;BMP280;9930;49.240;8.548;2023-06-24T14:34:00;101006.91;;;33.62
19568;BMP280;9930;49.240;8.548;2023-06-24T14:36:28;100997.19;;;33.62
19568;BMP280;9930;49.240;8.548;2023-06-24T14:38:53;100993.69;;;33.62
19568;BMP280;9930;49.240;8.548;2023-06-24T14:41:19;100995.03;;;33.70
19568;BMP280;9930;49.240;8.548;2023-06-24T14:43:45;100997.28;;;33.78
19568;BMP280;9930;49.240;8.548;2023-06-24T14:46:10;100999.75;;;33.83